createdAt,value
2022-10-30T00:00:35.551Z,14.41
2022-10-30T00:03:02.549Z,14.35
2022-10-30T00:05:28.228Z,14.36
2022-10-30T00:07:54.592Z,14.28
2022-10-30T00:10:20.906Z,14.25
2022-10-30T00:12:47.217Z,14.17
2022-10-30T00:15:13.567Z,14.03
2022-10-30T00:17:39.884Z,13.94
2022-10-30T00:20:06.208Z,13.88
2022-10-30T00:22:32.533Z,13.79
2022-10-30T00:24:58.881Z,13.73
2022-10-30T00:27:25.217Z,13.66
2022-10-30T00:29:51.586Z,13.62
2022-10-30T00:32:17.904Z,13.57
2022-10-30T00:34:44.230Z,13.55
2022-10-30T00:37:10.576Z,13.52
2022-10-30T00:39:36.942Z,13.48
2022-10-30T00:42:03.261Z,13.43
2022-10-30T00:44:29.604Z,13.37
2022-10-30T00:46:55.931Z,13.37
2022-10-30T00:49:22.254Z,13.42
2022-10-30T00:51:48.573Z,13.43
2022-10-30T00:54:14.894Z,13.36
2022-10-30T00:56:41.237Z,13.29
2022-10-30T00:59:07.559Z,13.22
2022-10-30T01:01:33.989Z,13.18
2022-10-30T01:04:00.243Z,13.12
2022-10-30T01:06:26.684Z,13.10
2022-10-30T01:08:57.059Z,13.05
2022-10-30T01:11:19.254Z,13.02
2022-10-30T01:13:45.571Z,12.97
2022-10-30T01:16:11.924Z,12.96
2022-10-30T01:18:38.241Z,12.97
2022-10-30T01:21:04.560Z,12.96
2022-10-30T01:23:30.918Z,12.92
2022-10-30T01:25:57.233Z,12.91
2022-10-30T01:28:23.564Z,12.90
2022-10-30T01:30:49.912Z,12.83
2022-10-30T01:33:16.243Z,12.79
2022-10-30T01:35:42.566Z,12.78
2022-10-30T01:38:08.912Z,12.74
2022-10-30T01:40:35.236Z,12.69
2022-10-30T01:43:01.562Z,12.64
2022-10-30T01:45:27.945Z,12.63
2022-10-30T01:47:54.264Z,12.61
2022-10-30T01:50:20.602Z,12.57
2022-10-30T01:52:46.989Z,12.55
2022-10-30T01:55:13.321Z,12.52
2022-10-30T01:57:39.665Z,12.53
2022-10-30T02:00:05.990Z,12.55
2022-10-30T02:02:32.413Z,12.57
2022-10-30T02:04:58.687Z,12.56
2022-10-30T02:07:25.028Z,12.54
2022-10-30T02:09:51.397Z,12.66
2022-10-30T02:12:17.722Z,12.72
2022-10-30T02:14:44.060Z,12.68
2022-10-30T02:17:10.382Z,12.58
2022-10-30T02:19:36.746Z,12.46
2022-10-30T02:22:03.164Z,12.35
2022-10-30T02:24:29.420Z,12.29
2022-10-30T02:26:55.759Z,12.30
2022-10-30T02:29:22.070Z,12.29
2022-10-30T02:31:48.394Z,12.26
2022-10-30T02:34:14.739Z,12.25
2022-10-30T02:36:41.102Z,12.27
2022-10-30T02:39:07.416Z,12.33
2022-10-30T02:41:33.748Z,12.35
2022-10-30T02:44:00.069Z,12.38
2022-10-30T02:46:26.395Z,12.32
2022-10-30T02:48:52.733Z,12.28
2022-10-30T02:51:19.100Z,12.22
2022-10-30T02:53:45.384Z,12.14
2022-10-30T02:56:11.739Z,12.13
2022-10-30T02:58:38.082Z,12.08
2022-10-30T03:01:04.442Z,12.03
2022-10-30T03:03:30.749Z,11.99
2022-10-30T03:05:57.096Z,11.96
2022-10-30T03:08:23.418Z,11.90
2022-10-30T03:10:49.763Z,11.91
2022-10-30T03:13:16.101Z,11.87
2022-10-30T03:15:42.473Z,11.80
2022-10-30T03:18:08.815Z,11.76
2022-10-30T03:20:35.164Z,11.74
2022-10-30T03:23:01.511Z,11.73
2022-10-30T03:25:27.828Z,11.69
2022-10-30T03:27:54.177Z,11.66
2022-10-30T03:30:20.520Z,11.61
2022-10-30T03:32:46.848Z,11.58
2022-10-30T03:35:13.171Z,11.66
2022-10-30T03:37:39.514Z,11.65
2022-10-30T03:40:05.863Z,11.61
2022-10-30T03:42:32.201Z,11.55
2022-10-30T03:44:58.539Z,11.53
2022-10-30T03:47:24.860Z,11.53
2022-10-30T03:49:51.192Z,11.50
2022-10-30T03:52:17.517Z,11.47
2022-10-30T03:54:43.871Z,11.42
2022-10-30T03:57:10.211Z,11.47
2022-10-30T03:59:36.558Z,11.55
2022-10-30T04:02:03.045Z,11.52
2022-10-30T04:04:29.254Z,11.46
2022-10-30T04:06:55.587Z,11.53
2022-10-30T04:09:21.896Z,11.60
2022-10-30T04:11:48.242Z,11.64
2022-10-30T04:14:14.584Z,11.65
2022-10-30T04:16:40.920Z,11.55
2022-10-30T04:19:07.242Z,11.42
2022-10-30T04:21:33.580Z,11.43
2022-10-30T04:23:59.927Z,11.49
2022-10-30T04:26:26.259Z,11.54
2022-10-30T04:28:52.610Z,11.50
2022-10-30T04:31:18.963Z,11.33
2022-10-30T04:33:45.271Z,11.29
2022-10-30T04:36:11.592Z,11.25
2022-10-30T04:38:37.944Z,11.25
2022-10-30T04:41:04.086Z,11.15
2022-10-30T04:43:30.407Z,11.02
2022-10-30T04:45:56.744Z,10.94
2022-10-30T04:48:23.087Z,10.93
2022-10-30T04:50:49.401Z,10.87
2022-10-30T04:53:15.726Z,10.80
2022-10-30T04:55:42.070Z,10.76
2022-10-30T04:58:08.413Z,10.77
2022-10-30T05:00:34.753Z,10.81
2022-10-30T05:03:01.115Z,10.81
2022-10-30T05:05:27.435Z,10.85
2022-10-30T05:07:53.769Z,10.93
2022-10-30T05:10:20.137Z,10.96
2022-10-30T05:12:46.478Z,11.00
2022-10-30T05:15:12.813Z,11.02
2022-10-30T05:17:39.163Z,11.05
2022-10-30T05:20:05.504Z,11.06
2022-10-30T05:22:31.843Z,11.10
2022-10-30T05:24:58.202Z,11.15
2022-10-30T05:27:24.547Z,11.21
2022-10-30T05:29:50.870Z,11.31
2022-10-30T05:32:17.256Z,11.40
2022-10-30T05:34:43.568Z,11.51
2022-10-30T05:37:09.918Z,11.62
2022-10-30T05:39:36.277Z,11.75
2022-10-30T05:42:02.616Z,11.90
2022-10-30T05:44:54.782Z,12.06
2022-10-30T05:49:21.620Z,12.42
2022-10-30T05:51:47.946Z,12.64
2022-10-30T05:54:14.290Z,12.86
2022-10-30T05:56:40.637Z,12.96
2022-10-30T05:59:10.820Z,13.05
2022-10-30T06:01:37.243Z,13.25
2022-10-30T06:04:03.524Z,13.47
2022-10-30T06:06:29.868Z,13.68
2022-10-30T06:08:56.224Z,13.88
2022-10-30T06:11:22.580Z,14.11
2022-10-30T06:13:48.928Z,14.27
2022-10-30T06:16:15.273Z,14.44
2022-10-30T06:18:41.584Z,14.63
2022-10-30T06:21:08.369Z,14.79
2022-10-30T06:23:34.692Z,14.96
2022-10-30T06:26:01.054Z,15.10
2022-10-30T06:28:27.384Z,15.28
2022-10-30T06:30:53.716Z,15.53
2022-10-30T06:33:20.393Z,15.76
2022-10-30T06:35:46.738Z,15.86
2022-10-30T06:38:13.072Z,16.01
2022-10-30T06:40:39.424Z,16.29
2022-10-30T06:43:05.793Z,16.47
2022-10-30T06:45:32.128Z,16.63
2022-10-30T06:47:58.727Z,16.81
2022-10-30T06:50:24.827Z,16.99
2022-10-30T06:52:51.165Z,17.21
2022-10-30T06:55:17.505Z,17.36
2022-10-30T06:57:43.843Z,17.48
2022-10-30T07:00:10.204Z,17.62
2022-10-30T07:02:36.569Z,17.93
2022-10-30T07:05:02.958Z,17.99
2022-10-30T07:07:29.322Z,18.11
2022-10-30T07:09:55.700Z,18.24
2022-10-30T07:12:22.098Z,18.37
2022-10-30T07:14:48.495Z,18.57
2022-10-30T07:17:14.962Z,18.65
2022-10-30T07:19:41.293Z,18.76
2022-10-30T07:22:07.704Z,19.17
2022-10-30T07:24:34.025Z,19.33
2022-10-30T07:27:00.616Z,19.52
2022-10-30T07:29:26.975Z,19.55
2022-10-30T07:32:06.550Z,19.77
2022-10-30T07:34:19.697Z,19.88
2022-10-30T07:36:46.018Z,20.04
2022-10-30T07:39:12.410Z,20.33
2022-10-30T07:41:38.729Z,20.58
2022-10-30T07:44:05.058Z,20.77
2022-10-30T07:46:31.411Z,20.79
2022-10-30T07:48:57.732Z,20.79
2022-10-30T07:51:24.160Z,21.04
2022-10-30T07:53:50.472Z,21.19
2022-10-30T07:56:16.819Z,21.23
2022-10-30T07:58:45.678Z,21.29
2022-10-30T08:01:09.585Z,21.70
2022-10-30T08:03:35.795Z,21.93
2022-10-30T08:06:02.245Z,22.34
2022-10-30T08:08:28.499Z,22.67
2022-10-30T08:10:54.836Z,23.00
2022-10-30T08:13:21.222Z,23.35
2022-10-30T08:15:47.571Z,23.57
2022-10-30T08:18:13.908Z,23.71
2022-10-30T08:20:40.310Z,23.98
2022-10-30T08:23:06.576Z,24.25
2022-10-30T08:25:32.892Z,24.36
2022-10-30T08:27:59.244Z,24.32
2022-10-30T08:30:25.584Z,24.34
2022-10-30T08:32:51.946Z,24.54
2022-10-30T08:35:20.068Z,24.80
2022-10-30T08:37:44.642Z,24.81
2022-10-30T08:40:10.982Z,24.85
2022-10-30T08:42:37.336Z,24.88
2022-10-30T08:45:03.668Z,25.14
2022-10-30T08:47:30.035Z,25.38
2022-10-30T08:49:56.366Z,25.58
2022-10-30T08:52:22.692Z,25.70
2022-10-30T08:54:49.027Z,25.75
2022-10-30T08:57:15.343Z,25.73
2022-10-30T08:59:41.740Z,25.84
2022-10-30T09:02:08.159Z,25.97
2022-10-30T09:04:34.394Z,26.00
2022-10-30T09:07:00.738Z,26.01
2022-10-30T09:09:27.076Z,26.26
2022-10-30T09:11:53.415Z,26.35
2022-10-30T09:14:19.774Z,26.52
2022-10-30T09:16:46.101Z,26.66
2022-10-30T09:19:17.675Z,26.83
2022-10-30T09:21:38.771Z,26.96
2022-10-30T09:24:05.127Z,27.16
2022-10-30T09:26:31.448Z,27.34
2022-10-30T09:28:57.801Z,27.44
2022-10-30T09:31:24.152Z,27.56
2022-10-30T09:33:50.503Z,27.61
2022-10-30T09:36:19.657Z,27.68
2022-10-30T09:38:43.173Z,27.66
2022-10-30T09:41:09.539Z,27.73
2022-10-30T09:43:35.889Z,27.94
2022-10-30T09:46:02.219Z,28.07
2022-10-30T09:48:28.546Z,28.16
2022-10-30T09:50:54.866Z,28.27
2022-10-30T09:53:21.197Z,28.29
2022-10-30T09:55:47.544Z,28.35
2022-10-30T09:58:13.908Z,28.49
2022-10-30T10:00:40.234Z,28.44
2022-10-30T10:03:06.549Z,28.34
2022-10-30T10:05:32.927Z,28.24
2022-10-30T10:07:59.749Z,28.20
2022-10-30T10:10:25.617Z,28.13
2022-10-30T10:12:53.869Z,28.07
2022-10-30T10:15:18.263Z,28.10
2022-10-30T10:17:44.613Z,28.08
2022-10-30T10:20:10.968Z,28.13
2022-10-30T10:22:37.318Z,28.13
2022-10-30T10:25:03.656Z,28.12
2022-10-30T10:27:30.001Z,28.12
2022-10-30T10:29:56.368Z,27.97
2022-10-30T10:32:22.690Z,27.92
2022-10-30T10:34:49.032Z,27.89
2022-10-30T10:37:15.383Z,27.97
2022-10-30T10:39:41.724Z,28.03
2022-10-30T10:42:08.045Z,28.12
2022-10-30T10:44:34.391Z,28.14
2022-10-30T10:47:06.010Z,28.18
2022-10-30T10:49:27.072Z,28.20
2022-10-30T10:51:53.389Z,28.33
2022-10-30T10:54:19.807Z,28.52
2022-10-30T10:56:46.523Z,28.67
2022-10-30T10:59:12.839Z,28.82
2022-10-30T11:01:39.269Z,29.06
2022-10-30T11:04:05.527Z,29.41
2022-10-30T11:06:31.865Z,29.77
2022-10-30T11:08:58.215Z,29.96
2022-10-30T11:11:24.561Z,29.93
2022-10-30T11:13:50.894Z,29.96
2022-10-30T11:16:17.244Z,30.00
2022-10-30T11:18:43.586Z,30.03
2022-10-30T11:21:09.918Z,29.98
2022-10-30T11:23:36.255Z,30.01
2022-10-30T11:26:02.599Z,30.07
2022-10-30T11:28:28.936Z,30.11
2022-10-30T11:30:55.264Z,30.11
2022-10-30T11:33:21.584Z,30.08
2022-10-30T11:35:47.909Z,30.05
2022-10-30T11:38:14.238Z,30.12
2022-10-30T11:40:40.576Z,30.20
2022-10-30T11:43:06.968Z,30.18
2022-10-30T11:45:33.317Z,30.12
2022-10-30T11:48:02.524Z,30.03
2022-10-30T11:50:25.953Z,29.98
2022-10-30T11:52:52.317Z,30.03
2022-10-30T11:55:18.666Z,29.98
2022-10-30T11:57:45.003Z,29.91
2022-10-30T12:00:11.346Z,30.00
2022-10-30T12:05:04.021Z,29.94
2022-10-30T12:07:30.364Z,29.76
2022-10-30T12:09:56.709Z,29.82
2022-10-30T12:12:23.044Z,29.90
2022-10-30T12:14:49.390Z,29.91
2022-10-30T12:17:15.739Z,29.91
2022-10-30T12:19:42.061Z,29.76
2022-10-30T12:22:09.866Z,29.67
2022-10-30T12:24:34.741Z,29.48
2022-10-30T12:27:01.078Z,29.47
2022-10-30T12:29:41.708Z,29.50
2022-10-30T12:31:53.719Z,29.47
2022-10-30T12:34:20.071Z,29.40
2022-10-30T12:36:46.459Z,29.44
2022-10-30T12:39:12.784Z,29.39
2022-10-30T12:41:39.137Z,29.30
2022-10-30T12:44:05.480Z,29.30
2022-10-30T12:46:31.796Z,29.15
2022-10-30T12:48:58.143Z,28.65
2022-10-30T12:51:24.487Z,28.41
2022-10-30T12:53:50.826Z,28.66
2022-10-30T12:56:17.193Z,28.94
2022-10-30T12:58:43.528Z,29.15
2022-10-30T13:01:09.925Z,29.24
2022-10-30T13:03:36.285Z,29.35
2022-10-30T13:06:02.666Z,29.34
2022-10-30T13:08:28.989Z,29.28
2022-10-30T13:10:55.322Z,29.21
2022-10-30T13:13:21.646Z,29.05
2022-10-30T13:15:47.992Z,28.94
2022-10-30T13:18:14.323Z,28.89
2022-10-30T13:20:40.649Z,28.82
2022-10-30T13:23:06.974Z,28.75
2022-10-30T13:25:33.365Z,28.60
2022-10-30T13:27:59.691Z,28.45
2022-10-30T13:30:26.037Z,28.29
2022-10-30T13:32:52.361Z,28.15
2022-10-30T13:35:18.680Z,28.03
2022-10-30T13:37:45.052Z,27.89
2022-10-30T13:40:11.368Z,27.76
2022-10-30T13:42:37.709Z,27.66
2022-10-30T13:45:04.024Z,27.59
2022-10-30T13:47:30.369Z,27.51
2022-10-30T13:49:56.808Z,27.49
2022-10-30T13:52:23.200Z,27.38
2022-10-30T13:54:49.471Z,27.22
2022-10-30T13:57:15.802Z,27.10
2022-10-30T13:59:42.122Z,26.96
2022-10-30T14:02:08.582Z,26.85
2022-10-30T14:04:34.788Z,26.74
2022-10-30T14:07:01.132Z,26.62
2022-10-30T14:09:27.451Z,26.50
2022-10-30T14:11:53.800Z,26.34
2022-10-30T14:14:20.113Z,26.23
2022-10-30T14:16:46.441Z,26.17
2022-10-30T14:19:12.760Z,26.10
2022-10-30T14:21:39.123Z,26.01
2022-10-30T14:24:05.510Z,25.92
2022-10-30T14:26:31.829Z,25.84
2022-10-30T14:28:58.150Z,25.74
2022-10-30T14:31:24.481Z,25.67
2022-10-30T14:33:50.830Z,25.58
2022-10-30T14:36:17.200Z,25.48
2022-10-30T14:38:43.522Z,25.37
2022-10-30T14:41:12.874Z,25.30
2022-10-30T14:43:36.204Z,25.22
2022-10-30T14:46:02.519Z,25.13
2022-10-30T14:48:28.855Z,25.02
2022-10-30T14:50:55.212Z,24.91
2022-10-30T14:53:21.521Z,24.79
2022-10-30T14:55:47.899Z,24.72
2022-10-30T14:58:14.241Z,24.66
2022-10-30T15:00:40.572Z,24.59
2022-10-30T15:03:06.914Z,24.69
2022-10-30T15:05:33.302Z,24.67
2022-10-30T15:07:59.897Z,24.51
2022-10-30T15:10:25.984Z,24.35
2022-10-30T15:12:52.294Z,24.24
2022-10-30T15:15:18.643Z,24.17
2022-10-30T15:17:44.946Z,24.08
2022-10-30T15:20:11.293Z,24.04
2022-10-30T15:22:37.614Z,23.95
2022-10-30T15:25:03.945Z,23.86
2022-10-30T15:27:30.291Z,23.85
2022-10-30T15:29:56.667Z,23.80
2022-10-30T15:32:23.004Z,23.73
2022-10-30T15:34:49.332Z,23.68
2022-10-30T15:37:15.690Z,23.70
2022-10-30T15:39:42.041Z,23.66
2022-10-30T15:42:08.377Z,23.54
2022-10-30T15:44:34.762Z,23.45
2022-10-30T15:47:01.169Z,23.40
2022-10-30T15:49:27.427Z,23.34
2022-10-30T15:51:53.757Z,23.28
2022-10-30T15:54:20.081Z,23.22
2022-10-30T15:57:17.925Z,23.17
2022-10-30T15:59:12.728Z,23.11
2022-10-30T16:01:39.253Z,23.06
2022-10-30T16:04:05.404Z,23.02
2022-10-30T16:06:31.729Z,23.01
2022-10-30T16:08:58.125Z,22.97
2022-10-30T16:11:24.473Z,22.93
2022-10-30T16:13:50.823Z,22.88
2022-10-30T16:16:17.657Z,22.79
2022-10-30T16:18:44.000Z,22.72
2022-10-30T16:21:10.338Z,22.71
2022-10-30T16:23:36.688Z,22.67
2022-10-30T16:26:03.002Z,22.58
2022-10-30T16:28:29.357Z,22.48
2022-10-30T16:30:55.695Z,22.40
2022-10-30T16:33:22.047Z,22.36
2022-10-30T16:35:54.652Z,22.29
2022-10-30T16:38:14.764Z,22.25
2022-10-30T16:40:41.085Z,22.23
2022-10-30T16:43:07.420Z,22.21
2022-10-30T16:45:33.770Z,22.20
2022-10-30T16:48:04.438Z,22.16
2022-10-30T16:50:26.452Z,22.16
2022-10-30T16:52:52.774Z,22.14
2022-10-30T16:55:19.095Z,22.08
2022-10-30T16:57:45.438Z,22.02
2022-10-30T17:00:11.841Z,21.97
2022-10-30T17:02:38.261Z,21.92
2022-10-30T17:05:04.506Z,21.86
2022-10-30T17:07:30.852Z,21.80
2022-10-30T17:09:57.165Z,21.76
2022-10-30T17:12:23.511Z,21.72
2022-10-30T17:14:49.851Z,21.69
2022-10-30T17:17:16.174Z,21.69
2022-10-30T17:19:42.550Z,21.67
2022-10-30T17:22:08.896Z,21.61
2022-10-30T17:24:35.215Z,21.57
2022-10-30T17:27:01.579Z,21.53
2022-10-30T17:29:27.895Z,21.52
2022-10-30T17:31:54.246Z,21.53
2022-10-30T17:34:20.571Z,21.48
2022-10-30T17:36:46.911Z,21.44
2022-10-30T17:39:13.266Z,21.40
2022-10-30T17:41:39.614Z,21.37
2022-10-30T17:44:06.942Z,21.33
2022-10-30T17:46:33.293Z,21.37
2022-10-30T17:48:59.666Z,21.38
2022-10-30T17:51:26.008Z,21.37
2022-10-30T17:53:52.327Z,21.34
2022-10-30T17:56:18.707Z,21.31
2022-10-30T17:58:45.038Z,21.27
2022-10-30T18:01:11.398Z,21.23
2022-10-30T18:03:37.758Z,21.19
2022-10-30T18:06:05.090Z,21.18
2022-10-30T18:08:31.425Z,21.18
2022-10-30T18:10:57.766Z,21.11
2022-10-30T18:13:24.086Z,21.06
2022-10-30T18:15:50.430Z,20.99
2022-10-30T18:18:16.774Z,20.97
2022-10-30T18:20:43.115Z,20.97
2022-10-30T18:23:12.769Z,20.97
2022-10-30T18:25:35.807Z,20.92
2022-10-30T18:28:02.151Z,20.91
2022-10-30T18:30:28.467Z,20.91
2022-10-30T18:32:54.795Z,20.91
2022-10-30T18:35:21.121Z,20.89
2022-10-30T18:37:47.475Z,20.84
2022-10-30T18:40:13.804Z,20.78
2022-10-30T18:42:40.175Z,20.78
2022-10-30T18:45:06.509Z,20.76
2022-10-30T18:47:32.848Z,20.72
2022-10-30T18:49:59.211Z,20.70
2022-10-30T18:52:25.552Z,20.75
2022-10-30T18:54:51.892Z,20.74
2022-10-30T18:57:18.237Z,20.71
2022-10-30T18:59:44.574Z,20.65
2022-10-30T19:02:11.000Z,20.61
2022-10-30T19:04:37.252Z,20.55
2022-10-30T19:07:03.585Z,20.59
2022-10-30T19:09:29.934Z,20.57
2022-10-30T19:11:56.259Z,20.49
2022-10-30T19:14:22.579Z,20.35
2022-10-30T19:16:48.962Z,20.25
2022-10-30T19:19:15.298Z,20.16
2022-10-30T19:21:41.638Z,20.11
2022-10-30T19:24:07.991Z,20.09
2022-10-30T19:26:34.334Z,20.07
2022-10-30T19:29:00.670Z,20.07
2022-10-30T19:31:26.985Z,20.02
2022-10-30T19:33:57.074Z,20.01
2022-10-30T19:36:19.702Z,19.98
2022-10-30T19:38:46.035Z,19.94
2022-10-30T19:41:12.356Z,19.90
2022-10-30T19:43:38.681Z,19.89
2022-10-30T19:46:05.043Z,19.84
2022-10-30T19:49:01.282Z,19.81
2022-10-30T19:50:57.726Z,19.78
2022-10-30T19:53:24.085Z,19.77
2022-10-30T19:55:50.434Z,19.76
2022-10-30T19:58:18.038Z,19.72
2022-10-30T20:00:43.124Z,19.70
2022-10-30T20:03:09.445Z,19.68
2022-10-30T20:05:35.755Z,19.67
2022-10-30T20:08:02.383Z,19.66
2022-10-30T20:10:28.452Z,19.64
2022-10-30T20:12:54.838Z,19.64
2022-10-30T20:15:21.158Z,19.61
2022-10-30T20:17:47.479Z,19.60
2022-10-30T20:20:13.820Z,19.60
2022-10-30T20:22:40.196Z,19.58
2022-10-30T20:25:06.515Z,19.53
2022-10-30T20:27:32.858Z,19.49
2022-10-30T20:29:59.202Z,19.47
2022-10-30T20:32:25.545Z,19.45
2022-10-30T20:34:51.874Z,19.44
2022-10-30T20:37:18.212Z,19.39
2022-10-30T20:39:44.569Z,19.37
2022-10-30T20:42:10.895Z,19.34
2022-10-30T20:44:37.221Z,19.32
2022-10-30T20:47:03.560Z,19.30
2022-10-30T20:49:29.907Z,19.29
2022-10-30T20:51:56.266Z,19.26
2022-10-30T20:54:22.609Z,19.22
2022-10-30T20:56:48.923Z,19.22
2022-10-30T20:59:15.275Z,19.20
2022-10-30T21:01:41.749Z,19.14
2022-10-30T21:04:07.933Z,19.11
2022-10-30T21:06:34.290Z,19.06
2022-10-30T21:09:00.642Z,19.03
2022-10-30T21:11:26.976Z,19.04
2022-10-30T21:13:53.320Z,19.01
2022-10-30T21:16:19.662Z,18.99
2022-10-30T21:18:45.998Z,18.99
2022-10-30T21:21:12.323Z,18.99
2022-10-30T21:23:38.633Z,18.95
2022-10-30T21:26:05.006Z,18.96
2022-10-30T21:28:31.343Z,18.92
2022-10-30T21:30:57.651Z,18.89
2022-10-30T21:33:24.057Z,18.89
2022-10-30T21:35:50.398Z,18.87
2022-10-30T21:38:16.719Z,18.82
2022-10-30T21:40:43.060Z,18.79
2022-10-30T21:43:09.732Z,18.78
2022-10-30T21:45:35.721Z,18.75
2022-10-30T21:48:02.064Z,18.74
2022-10-30T21:50:28.446Z,18.74
2022-10-30T21:52:54.779Z,18.72
2022-10-30T21:55:21.106Z,18.70
2022-10-30T21:57:47.476Z,18.66
2022-10-30T22:00:13.799Z,18.55
2022-10-30T22:02:40.123Z,18.57
2022-10-30T22:05:06.492Z,18.55
2022-10-30T22:07:32.811Z,18.50
2022-10-30T22:09:59.166Z,18.49
2022-10-30T22:12:25.532Z,18.47
2022-10-30T22:14:51.855Z,18.48
2022-10-30T22:17:18.205Z,18.49
2022-10-30T22:19:44.557Z,18.47
2022-10-30T22:22:10.914Z,18.46
2022-10-30T22:24:37.251Z,18.45
2022-10-30T22:27:03.584Z,18.47
2022-10-30T22:29:29.928Z,18.47
2022-10-30T22:31:56.252Z,18.44
2022-10-30T22:34:22.593Z,18.42
2022-10-30T22:36:48.961Z,18.40
2022-10-30T22:39:15.319Z,18.36
2022-10-30T22:41:41.622Z,18.32
2022-10-30T22:44:08.667Z,18.27
2022-10-30T22:46:34.324Z,18.26
2022-10-30T22:49:00.662Z,18.24
2022-10-30T22:51:27.025Z,18.21
2022-10-30T22:53:53.355Z,18.21
2022-10-30T22:56:19.704Z,18.21
2022-10-30T22:58:46.094Z,18.16
2022-10-30T23:01:12.386Z,18.15
2022-10-30T23:03:38.813Z,18.17
2022-10-30T23:06:05.090Z,18.20
2022-10-30T23:08:31.362Z,18.20
2022-10-30T23:10:57.681Z,18.18
2022-10-30T23:13:24.049Z,18.16
2022-10-30T23:15:50.359Z,18.18
2022-10-30T23:18:16.705Z,18.14
2022-10-30T23:20:43.064Z,18.08
2022-10-30T23:23:09.408Z,18.07
2022-10-30T23:25:35.728Z,18.05
2022-10-30T23:28:02.253Z,17.98
2022-10-30T23:30:28.428Z,17.93
2022-10-30T23:32:54.771Z,17.90
2022-10-30T23:35:21.130Z,17.91
2022-10-30T23:37:47.487Z,17.89
2022-10-30T23:40:13.840Z,17.83
2022-10-30T23:42:40.175Z,17.84
2022-10-30T23:45:06.538Z,17.81
2022-10-30T23:47:32.858Z,17.79
2022-10-30T23:49:59.199Z,17.76
2022-10-30T23:52:25.538Z,17.72
2022-10-30T23:54:51.924Z,17.68
2022-10-30T23:57:18.239Z,17.66
2022-10-30T23:59:44.587Z,17.63
